Cape Hatteras National Seash, North Carolina
Current Conditions -  °F | °C
As of 11:15 PM on Wednesday 26 Nov 2014 (Local Time) from KMQI Reporting Station
Overcast Overcast  
Wind Chill: 36°   Ceiling: 1100
Heat Index: 42°   Visibility: 10mi
Dew Point: 38°   Wind: 9mph
Humidity: 87%   Direction: 300°WNW
Pressure: 30.06"   Gusts: NA
Location:  35.8834°N, 75.6616°W
Report Text: KMQI 270415Z AUTO 30008KT 240V330 10SM OVC011 05/03 A3006 RMK AO2 T00530033
Loading
Personal Weather Stations






























Interactive Weather Map New forecast layout! Learn more

10-Day Weather Forecast

Advertisements
Track Severe Weather on mobile